Time;durP1;ratioP1;P1;durP2;ratioP2;P2;SDS_P1;SDS_P2;PMS_P1;PMS_P2;Temp;Humidity;BMP_temperature;BMP_pressure;BME280_temperature;BME280_humidity;BME280_pressure;Samples;Min_cycle;Max_cycle;Signal;HPM_P1;HPM_P2
2021/09/24 00:00:15;;;;;;;4.35;2.50;;;12.60;99.90;;;;;;5010128;28;20391;-76
2021/09/24 00:02:41;;;;;;;5.40;2.35;;;12.70;99.90;;;;;;5006194;28;20424;-76
2021/09/24 00:05:08;;;;;;;3.28;2.53;;;12.70;99.90;;;;;;5009294;28;20052;-76
2021/09/24 00:07:34;;;;;;;2.80;2.35;;;12.80;99.90;;;;;;5010768;28;20099;-77
2021/09/24 00:10:00;;;;;;;2.60;2.40;;;12.90;99.90;;;;;;5010598;28;20042;-76
2021/09/24 00:12:25;;;;;;;4.72;2.13;;;13.00;99.90;;;;;;5012926;28;20033;-76
2021/09/24 00:14:52;;;;;;;2.53;2.22;;;13.00;99.90;;;;;;5010056;28;20033;-76
2021/09/24 00:17:18;;;;;;;5.22;2.28;;;13.10;99.90;;;;;;5008648;28;20026;-76
2021/09/24 00:19:43;;;;;;;2.78;2.50;;;13.20;99.90;;;;;;5008180;28;20545;-76
2021/09/24 00:22:09;;;;;;;3.58;2.80;;;13.20;99.90;;;;;;5013073;28;20045;-77
2021/09/24 00:24:35;;;;;;;5.72;2.83;;;13.30;99.90;;;;;;4993924;28;20737;-77
2021/09/24 00:27:00;;;;;;;3.30;2.50;;;13.40;99.90;;;;;;5011393;28;20121;-76
2021/09/24 00:29:26;;;;;;;7.40;2.40;;;13.40;99.90;;;;;;5019357;28;20052;-76
2021/09/24 00:31:53;;;;;;;3.72;2.50;;;13.50;99.90;;;;;;5010316;28;20407;-76
2021/09/24 00:34:19;;;;;;;4.45;2.85;;;13.60;99.90;;;;;;5011563;28;20037;-77
2021/09/24 00:36:44;;;;;;;2.75;2.42;;;13.60;99.90;;;;;;5027484;28;20022;-76
2021/09/24 00:39:10;;;;;;;4.03;2.55;;;13.70;99.90;;;;;;5011706;28;20034;-76
2021/09/24 00:41:36;;;;;;;3.65;2.47;;;13.70;99.90;;;;;;5009887;28;20045;-77
2021/09/24 00:44:03;;;;;;;5.05;3.00;;;13.60;99.90;;;;;;5009218;28;20037;-76
2021/09/24 00:46:28;;;;;;;3.67;2.92;;;13.60;99.90;;;;;;5010387;28;20037;-76
2021/09/24 00:48:54;;;;;;;7.22;2.90;;;13.60;99.90;;;;;;5011773;28;20041;-77
2021/09/24 00:51:20;;;;;;;7.60;2.67;;;13.60;99.90;;;;;;5011289;28;20148;-76
2021/09/24 00:53:46;;;;;;;3.50;3.00;;;13.60;99.90;;;;;;5009126;28;20054;-76
2021/09/24 00:56:12;;;;;;;5.28;2.95;;;13.60;99.90;;;;;;5009404;28;20096;-77
2021/09/24 00:58:38;;;;;;;4.68;3.60;;;13.60;99.90;;;;;;5004397;28;20044;-76
2021/09/24 01:01:04;;;;;;;3.95;3.25;;;13.60;99.90;;;;;;5005527;28;20037;-77
2021/09/24 01:03:30;;;;;;;5.00;3.35;;;13.70;99.90;;;;;;5009560;28;20034;-77
2021/09/24 01:05:55;;;;;;;3.38;3.08;;;13.70;99.90;;;;;;5010311;28;20045;-76
2021/09/24 01:08:21;;;;;;;3.20;2.90;;;13.70;99.90;;;;;;5009683;28;20028;-76
2021/09/24 01:10:48;;;;;;;5.03;3.20;;;13.80;99.90;;;;;;5013189;28;20443;-76
2021/09/24 01:13:14;;;;;;;3.80;3.22;;;13.80;99.90;;;;;;5010846;28;20034;-76
2021/09/24 01:15:40;;;;;;;5.78;3.53;;;13.90;99.90;;;;;;5010065;28;20026;-76
2021/09/24 01:18:06;;;;;;;3.33;2.95;;;13.80;99.90;;;;;;5024513;28;20502;-76
2021/09/24 01:20:32;;;;;;;4.43;3.10;;;13.90;99.90;;;;;;5009572;28;20041;-75
2021/09/24 01:22:59;;;;;;;7.78;2.80;;;13.90;99.90;;;;;;5021478;28;20054;-76
2021/09/24 01:25:25;;;;;;;4.00;2.95;;;13.90;99.90;;;;;;5010359;28;20034;-76
2021/09/24 01:27:52;;;;;;;3.50;3.05;;;14.00;99.90;;;;;;5009303;28;20483;-76
2021/09/24 01:30:18;;;;;;;5.28;3.25;;;14.00;99.90;;;;;;5009436;28;20044;-76
2021/09/24 01:32:45;;;;;;;3.63;3.05;;;14.00;99.90;;;;;;5010242;28;20034;-76
2021/09/24 01:35:12;;;;;;;4.63;3.10;;;14.00;99.90;;;;;;5008932;28;20153;-76
2021/09/24 01:37:39;;;;;;;3.90;3.20;;;14.00;99.90;;;;;;5008831;28;20118;-76
2021/09/24 01:40:11;;;;;;;4.65;3.40;;;14.00;99.90;;;;;;5008154;28;20874;-76
2021/09/24 01:42:37;;;;;;;4.55;3.30;;;14.00;99.90;;;;;;5011461;28;20526;-76
2021/09/24 01:45:04;;;;;;;8.07;3.50;;;14.00;99.90;;;;;;5010812;28;20037;-76
2021/09/24 01:47:30;;;;;;;3.65;3.28;;;14.00;99.90;;;;;;5008088;28;20037;-76
2021/09/24 01:49:56;;;;;;;4.70;3.28;;;14.00;99.90;;;;;;5016798;28;20033;-75
2021/09/24 01:52:22;;;;;;;4.00;3.50;;;14.00;99.90;;;;;;5022687;28;20026;-76
2021/09/24 01:54:48;;;;;;;6.78;3.50;;;14.00;99.90;;;;;;5009088;28;20026;-76
2021/09/24 01:57:13;;;;;;;4.45;3.13;;;14.00;99.90;;;;;;5007943;28;20816;-76
2021/09/24 01:59:39;;;;;;;3.35;3.00;;;14.00;99.90;;;;;;5010142;28;20022;-77
2021/09/24 02:02:05;;;;;;;4.95;3.17;;;14.00;99.90;;;;;;5010504;28;20168;-77
2021/09/24 02:04:30;;;;;;;4.05;3.50;;;14.00;99.90;;;;;;5010167;28;20468;-76
2021/09/24 02:06:56;;;;;;;5.70;3.10;;;14.00;99.90;;;;;;5010020;28;20026;-77
2021/09/24 02:09:22;;;;;;;5.95;3.05;;;14.00;99.90;;;;;;5009907;28;20025;-77
2021/09/24 02:11:48;;;;;;;5.57;2.95;;;14.10;99.90;;;;;;5010773;28;20508;-77
2021/09/24 02:14:13;;;;;;;3.75;3.30;;;14.00;99.90;;;;;;4995702;28;20042;-76
2021/09/24 02:16:39;;;;;;;4.55;3.65;;;14.00;99.90;;;;;;5012975;28;20112;-76
2021/09/24 02:19:05;;;;;;;7.18;3.45;;;14.00;99.90;;;;;;5012325;28;20029;-77
2021/09/24 02:21:31;;;;;;;4.40;3.55;;;14.00;99.90;;;;;;5013200;28;20046;-77
2021/09/24 02:23:57;;;;;;;4.25;3.30;;;14.00;99.90;;;;;;5014822;28;20034;-77
2021/09/24 02:26:22;;;;;;;3.80;3.25;;;13.90;99.90;;;;;;5011505;28;20372;-76
2021/09/24 02:28:48;;;;;;;4.53;3.58;;;13.90;99.90;;;;;;5014297;28;20061;-77
2021/09/24 02:31:14;;;;;;;4.40;3.40;;;13.90;99.90;;;;;;4993551;28;20033;-77
2021/09/24 02:33:41;;;;;;;5.82;3.47;;;13.90;99.90;;;;;;5009720;28;20575;-76
2021/09/24 02:36:09;;;;;;;3.50;3.05;;;13.90;99.90;;;;;;5009464;28;20030;-77
2021/09/24 02:38:35;;;;;;;2.92;2.58;;;13.90;99.90;;;;;;5011314;28;20046;-76
2021/09/24 02:41:01;;;;;;;3.67;3.22;;;13.80;99.90;;;;;;5013621;28;20033;-77
2021/09/24 02:43:27;;;;;;;3.53;2.90;;;13.90;99.90;;;;;;5015096;28;20029;-78
2021/09/24 02:45:53;;;;;;;4.53;3.17;;;13.80;99.90;;;;;;5012205;28;20034;-77
2021/09/24 02:48:19;;;;;;;4.95;3.17;;;13.80;99.90;;;;;;5015814;28;20118;-77
2021/09/24 02:50:45;;;;;;;5.18;2.75;;;13.80;99.90;;;;;;5021716;28;20408;-77
2021/09/24 02:53:11;;;;;;;3.42;3.08;;;13.80;99.90;;;;;;5013703;28;20044;-77
2021/09/24 02:55:36;;;;;;;4.13;3.40;;;13.80;99.90;;;;;;5013567;28;20496;-77
2021/09/24 02:58:02;;;;;;;3.10;2.65;;;13.90;99.90;;;;;;5011428;28;20507;-77
2021/09/24 03:00:28;;;;;;;4.55;3.20;;;13.90;99.90;;;;;;5006253;28;20057;-77
2021/09/24 03:02:54;;;;;;;3.25;2.92;;;13.90;99.90;;;;;;5015062;28;20042;-77
2021/09/24 03:05:20;;;;;;;3.42;2.95;;;13.90;99.90;;;;;;5011675;28;20107;-77
2021/09/24 03:07:45;;;;;;;4.78;3.00;;;13.80;99.90;;;;;;5011210;28;20029;-77
2021/09/24 03:10:11;;;;;;;3.58;3.28;;;13.80;99.90;;;;;;5012086;28;20034;-77
2021/09/24 03:12:37;;;;;;;4.47;3.20;;;13.80;99.90;;;;;;5013365;28;20033;-77
2021/09/24 03:15:05;;;;;;;3.30;2.92;;;13.90;99.90;;;;;;5011901;28;20061;-77
2021/09/24 03:17:31;;;;;;;3.63;2.90;;;13.90;99.90;;;;;;5012058;28;20099;-77
2021/09/24 03:19:57;;;;;;;3.63;2.78;;;13.90;99.90;;;;;;5004493;28;20078;-77
2021/09/24 03:22:22;;;;;;;4.70;2.78;;;13.80;99.90;;;;;;5014064;28;20207;-77
2021/09/24 03:24:48;;;;;;;4.10;3.25;;;13.80;99.90;;;;;;5025949;28;20034;-77
2021/09/24 03:27:14;;;;;;;6.05;3.38;;;13.80;99.90;;;;;;5012781;28;20044;-77
2021/09/24 03:29:40;;;;;;;3.17;2.75;;;13.80;99.90;;;;;;5027211;28;20068;-77
2021/09/24 03:32:06;;;;;;;6.57;3.13;;;13.80;99.90;;;;;;5009598;28;20030;-77
2021/09/24 03:34:32;;;;;;;4.15;3.20;;;13.80;99.90;;;;;;5010906;28;20026;-76
2021/09/24 03:36:58;;;;;;;3.90;3.00;;;13.70;99.90;;;;;;5011209;28;20377;-77
2021/09/24 03:39:23;;;;;;;6.05;2.95;;;13.80;99.90;;;;;;4995889;28;20116;-77
2021/09/24 03:41:49;;;;;;;5.13;2.88;;;13.80;99.90;;;;;;5005288;28;20070;-77
2021/09/24 03:44:15;;;;;;;5.55;3.05;;;13.70;99.90;;;;;;5013250;28;20112;-77
2021/09/24 03:46:41;;;;;;;5.30;2.70;;;13.70;99.90;;;;;;5011166;28;20464;-77
2021/09/24 03:49:07;;;;;;;6.32;3.20;;;13.70;99.90;;;;;;5012352;28;20121;-76
2021/09/24 03:51:32;;;;;;;5.35;3.53;;;13.70;99.90;;;;;;5011910;28;20042;-77
2021/09/24 03:53:58;;;;;;;7.00;4.10;;;13.70;99.90;;;;;;5012318;28;20049;-77
2021/09/24 03:56:24;;;;;;;4.28;3.42;;;13.70;99.90;;;;;;5010117;28;20403;-77
2021/09/24 03:58:50;;;;;;;5.10;3.15;;;13.80;99.90;;;;;;5028155;28;20560;-76
2021/09/24 04:01:16;;;;;;;4.90;3.42;;;13.70;99.90;;;;;;5020101;28;20534;-77
2021/09/24 04:03:43;;;;;;;5.90;3.30;;;13.70;99.90;;;;;;5025612;28;20065;-77
2021/09/24 04:06:09;;;;;;;4.90;3.50;;;13.70;99.90;;;;;;5008739;28;20038;-77
2021/09/24 04:08:35;;;;;;;4.07;3.28;;;13.70;99.90;;;;;;5011307;28;20073;-77
2021/09/24 04:11:02;;;;;;;4.05;3.03;;;13.70;99.90;;;;;;5009573;28;20057;-77
2021/09/24 04:13:27;;;;;;;5.40;3.30;;;13.70;99.90;;;;;;5013869;28;20029;-77
2021/09/24 04:15:53;;;;;;;6.13;3.53;;;13.70;99.90;;;;;;5010191;28;20049;-77
2021/09/24 04:18:19;;;;;;;5.63;3.55;;;13.70;99.90;;;;;;5013861;28;20018;-77
2021/09/24 04:20:46;;;;;;;4.93;3.05;;;13.70;99.90;;;;;;5006542;28;20453;-77
2021/09/24 04:23:13;;;;;;;3.58;2.83;;;13.60;99.90;;;;;;5010245;28;20404;-77
2021/09/24 04:25:38;;;;;;;5.85;3.45;;;13.60;99.90;;;;;;4993188;28;20069;-77
2021/09/24 04:28:04;;;;;;;3.78;2.97;;;13.60;99.90;;;;;;5009404;28;20131;-77
2021/09/24 04:30:30;;;;;;;4.20;3.25;;;13.60;99.90;;;;;;5004960;28;20040;-77
2021/09/24 04:32:56;;;;;;;6.43;3.50;;;13.60;99.90;;;;;;5009554;28;20060;-77
2021/09/24 04:35:24;;;;;;;6.10;3.00;;;13.60;99.90;;;;;;5010787;28;20112;-77
2021/09/24 04:37:50;;;;;;;4.63;3.45;;;13.60;99.90;;;;;;5024518;28;20080;-77
2021/09/24 04:40:16;;;;;;;4.53;3.45;;;13.60;99.90;;;;;;5006561;28;20480;-77
2021/09/24 04:42:41;;;;;;;5.78;3.60;;;13.60;99.90;;;;;;5006917;28;20045;-77
2021/09/24 04:45:07;;;;;;;5.30;3.42;;;13.60;99.90;;;;;;5012611;28;20038;-77
2021/09/24 04:47:33;;;;;;;7.25;3.63;;;13.50;99.90;;;;;;5010337;28;20034;-76
2021/09/24 04:49:59;;;;;;;4.65;3.25;;;13.50;99.90;;;;;;5006983;28;20037;-78
2021/09/24 04:52:24;;;;;;;4.05;3.28;;;13.50;99.90;;;;;;5007514;28;20030;-77
2021/09/24 04:54:50;;;;;;;4.25;3.22;;;13.50;99.90;;;;;;5010713;28;20018;-77
2021/09/24 04:57:16;;;;;;;4.97;3.60;;;13.50;99.90;;;;;;5008765;28;20531;-76
2021/09/24 04:59:42;;;;;;;7.38;3.35;;;13.50;99.90;;;;;;5008688;28;20018;-77
2021/09/24 05:02:08;;;;;;;4.57;3.17;;;13.50;99.90;;;;;;5011561;28;20026;-77
2021/09/24 05:04:33;;;;;;;3.75;2.97;;;13.50;99.90;;;;;;5008084;28;20026;-77
2021/09/24 05:06:59;;;;;;;4.68;3.50;;;13.40;99.90;;;;;;5008919;28;20022;-76
2021/09/24 05:09:24;;;;;;;7.00;4.60;;;13.50;99.90;;;;;;5008843;28;20500;-77
2021/09/24 05:11:50;;;;;;;4.07;3.15;;;13.50;99.90;;;;;;5002878;28;20428;-77
2021/09/24 05:14:16;;;;;;;5.95;3.30;;;13.50;99.90;;;;;;5020600;28;20049;-77
2021/09/24 05:16:42;;;;;;;4.18;2.97;;;13.50;99.90;;;;;;5009417;28;20033;-77
2021/09/24 05:19:07;;;;;;;6.10;2.90;;;13.50;99.90;;;;;;5008612;28;20029;-77
2021/09/24 05:21:33;;;;;;;5.07;3.40;;;13.40;99.90;;;;;;5009797;28;20391;-77
2021/09/24 05:23:59;;;;;;;2.92;2.55;;;13.40;99.90;;;;;;5010529;28;20049;-76
2021/09/24 05:26:25;;;;;;;4.47;3.60;;;13.50;99.90;;;;;;5009214;28;20053;-77
2021/09/24 05:28:50;;;;;;;3.42;2.78;;;13.50;99.90;;;;;;4986427;28;20038;-76
2021/09/24 05:31:16;;;;;;;4.63;3.05;;;13.50;99.90;;;;;;5007784;28;20026;-77
2021/09/24 05:33:42;;;;;;;7.22;3.13;;;13.50;99.90;;;;;;5005109;28;20022;-77
2021/09/24 05:36:11;;;;;;;5.28;3.13;;;13.50;99.90;;;;;;5006407;28;20033;-77
2021/09/24 05:38:38;;;;;;;3.05;2.65;;;13.50;99.90;;;;;;5008316;28;20034;-78
2021/09/24 05:41:03;;;;;;;3.85;2.90;;;13.50;99.90;;;;;;5008366;28;20034;-77
2021/09/24 05:43:29;;;;;;;4.18;3.50;;;13.50;99.90;;;;;;5007957;28;20034;-77
2021/09/24 05:45:55;;;;;;;3.33;3.00;;;13.50;99.90;;;;;;5025553;28;20042;-77
2021/09/24 05:48:20;;;;;;;4.55;2.92;;;13.50;99.90;;;;;;5007175;28;20045;-75
2021/09/24 05:50:46;;;;;;;7.15;3.05;;;13.50;99.90;;;;;;5005421;28;20557;-77
2021/09/24 05:53:12;;;;;;;7.30;3.03;;;13.50;99.90;;;;;;5006566;28;20034;-76
2021/09/24 05:55:38;;;;;;;4.15;3.30;;;13.60;99.90;;;;;;5012564;28;20033;-76
2021/09/24 05:58:04;;;;;;;4.20;2.92;;;13.50;99.90;;;;;;5008075;28;20113;-76
2021/09/24 06:00:30;;;;;;;3.63;2.67;;;13.60;99.90;;;;;;5004348;28;20121;-76
2021/09/24 06:02:56;;;;;;;4.00;2.80;;;13.60;99.90;;;;;;5012168;28;20038;-76
2021/09/24 06:05:21;;;;;;;3.40;3.10;;;13.60;99.90;;;;;;5009053;28;20092;-76
2021/09/24 06:07:47;;;;;;;7.55;2.88;;;13.60;99.90;;;;;;5009794;28;20026;-76
2021/09/24 06:10:15;;;;;;;4.38;2.53;;;13.60;99.90;;;;;;5012617;28;20029;-76
2021/09/24 06:12:42;;;;;;;5.38;3.13;;;13.60;99.90;;;;;;5011908;28;20116;-76
2021/09/24 06:15:09;;;;;;;4.10;3.20;;;13.60;99.90;;;;;;5011826;28;20034;-76
2021/09/24 06:17:34;;;;;;;4.07;2.97;;;13.60;99.90;;;;;;5010027;28;20054;-76
2021/09/24 06:20:00;;;;;;;3.38;3.08;;;13.70;99.90;;;;;;5010507;28;20515;-76
2021/09/24 06:22:27;;;;;;;4.70;2.60;;;13.70;99.90;;;;;;5006651;28;20033;-76
2021/09/24 06:24:53;;;;;;;3.38;2.90;;;13.70;99.90;;;;;;5009076;28;20049;-76
2021/09/24 06:27:19;;;;;;;4.78;3.20;;;13.70;99.90;;;;;;5006782;28;20034;-76
2021/09/24 06:29:47;;;;;;;3.90;2.63;;;13.70;99.90;;;;;;5016038;28;20033;-76
2021/09/24 06:32:13;;;;;;;4.55;2.78;;;13.70;99.90;;;;;;5005541;28;20026;-76
2021/09/24 06:34:40;;;;;;;4.57;3.00;;;13.70;99.90;;;;;;4994724;28;20057;-76
2021/09/24 06:37:06;;;;;;;4.47;3.13;;;13.80;99.90;;;;;;5022151;28;20041;-76
2021/09/24 06:39:32;;;;;;;5.45;2.60;;;13.70;99.90;;;;;;5011676;28;20022;-76
2021/09/24 06:41:58;;;;;;;3.97;2.90;;;13.70;99.90;;;;;;5017008;28;20030;-76
2021/09/24 06:44:24;;;;;;;6.65;3.15;;;13.70;99.90;;;;;;5008457;28;20022;-76
2021/09/24 06:46:50;;;;;;;4.43;3.28;;;13.70;99.90;;;;;;5008888;28;20113;-77
2021/09/24 06:49:16;;;;;;;4.93;2.95;;;13.70;99.90;;;;;;5015408;28;20036;-76
2021/09/24 06:51:42;;;;;;;6.43;2.88;;;13.80;99.90;;;;;;5012034;28;20030;-76
2021/09/24 06:54:08;;;;;;;3.13;2.40;;;13.80;99.90;;;;;;5017031;28;20109;-76
2021/09/24 06:56:34;;;;;;;3.47;2.88;;;13.80;99.90;;;;;;5007430;28;20046;-76
2021/09/24 06:59:00;;;;;;;3.80;2.92;;;13.90;99.90;;;;;;5004891;28;20450;-76
2021/09/24 07:01:27;;;;;;;3.08;2.78;;;13.90;99.90;;;;;;5016795;28;20109;-77
2021/09/24 07:03:53;;;;;;;3.92;2.63;;;13.80;99.90;;;;;;5007479;28;20042;-76
2021/09/24 07:06:19;;;;;;;4.28;3.45;;;13.90;99.90;;;;;;5023868;28;20041;-76
2021/09/24 07:08:45;;;;;;;3.53;3.03;;;13.90;99.90;;;;;;5009626;28;20124;-76
2021/09/24 07:11:11;;;;;;;6.63;2.92;;;13.90;99.90;;;;;;5016340;28;20114;-76
2021/09/24 07:13:37;;;;;;;5.15;3.22;;;14.00;99.90;;;;;;5012158;28;20030;-76
2021/09/24 07:16:04;;;;;;;5.53;3.17;;;14.00;99.90;;;;;;5010920;28;20109;-76
2021/09/24 07:18:30;;;;;;;4.90;3.35;;;14.10;99.90;;;;;;5012238;28;20056;-76
2021/09/24 07:20:55;;;;;;;4.28;3.10;;;14.10;99.90;;;;;;5006294;28;20049;-76
2021/09/24 07:23:21;;;;;;;5.07;3.70;;;14.10;99.90;;;;;;5027497;28;20021;-76
2021/09/24 07:25:48;;;;;;;3.90;3.10;;;14.10;99.90;;;;;;5010872;28;20037;-77
2021/09/24 07:28:14;;;;;;;4.57;3.15;;;14.20;99.90;;;;;;5009603;28;20029;-76
2021/09/24 07:30:40;;;;;;;4.03;3.38;;;14.20;99.90;;;;;;5017020;28;20038;-76
2021/09/24 07:33:07;;;;;;;4.32;3.33;;;14.30;99.90;;;;;;5008409;28;20031;-76
2021/09/24 07:35:33;;;;;;;5.20;3.28;;;14.30;99.90;;;;;;5009708;28;20026;-77
2021/09/24 07:37:59;;;;;;;4.32;3.35;;;14.40;99.90;;;;;;4993632;28;20504;-77
2021/09/24 07:40:24;;;;;;;6.18;3.05;;;14.40;99.90;;;;;;5007558;28;20065;-77
2021/09/24 07:42:51;;;;;;;6.28;3.40;;;14.50;99.90;;;;;;4991011;28;20034;-77
2021/09/24 07:45:16;;;;;;;4.97;3.55;;;14.50;99.90;;;;;;5010924;28;20057;-77
2021/09/24 07:47:42;;;;;;;4.60;3.33;;;14.50;99.90;;;;;;5011756;28;20432;-77
2021/09/24 07:50:09;;;;;;;5.43;3.63;;;14.50;99.90;;;;;;5016169;28;20034;-76
2021/09/24 07:52:34;;;;;;;6.63;3.60;;;14.50;99.90;;;;;;5011152;28;20133;-77
2021/09/24 07:55:00;;;;;;;4.38;3.42;;;14.60;99.90;;;;;;5010079;28;20137;-76
2021/09/24 07:57:26;;;;;;;4.93;4.03;;;14.60;99.90;;;;;;5012116;28;20041;-77
2021/09/24 07:59:52;;;;;;;4.45;3.65;;;14.70;99.90;;;;;;5010479;28;20022;-77
2021/09/24 08:02:19;;;;;;;6.05;3.92;;;14.70;99.90;;;;;;5001692;28;20487;-77
2021/09/24 08:04:45;;;;;;;5.05;3.85;;;14.70;99.90;;;;;;5001921;28;20077;-77
2021/09/24 08:07:11;;;;;;;5.80;3.47;;;14.70;99.90;;;;;;4994093;28;20554;-77
2021/09/24 08:09:36;;;;;;;4.55;2.97;;;14.80;99.90;;;;;;5004309;28;20373;-77
2021/09/24 08:12:03;;;;;;;4.10;3.10;;;14.80;99.90;;;;;;5006799;28;20030;-77
2021/09/24 08:14:28;;;;;;;6.07;3.67;;;14.80;99.90;;;;;;5007691;28;20034;-77
2021/09/24 08:16:54;;;;;;;5.43;3.90;;;14.80;99.90;;;;;;5012319;28;20053;-77
2021/09/24 08:19:20;;;;;;;6.80;3.20;;;14.80;99.90;;;;;;5010692;28;20058;-76
2021/09/24 08:21:45;;;;;;;8.57;3.67;;;14.90;99.90;;;;;;5007475;28;20053;-77
2021/09/24 08:24:11;;;;;;;4.95;3.88;;;14.90;99.90;;;;;;5015375;28;20416;-76
2021/09/24 08:26:37;;;;;;;3.97;3.25;;;14.90;99.90;;;;;;5006794;28;20064;-77
2021/09/24 08:29:02;;;;;;;6.43;3.78;;;14.80;99.90;;;;;;5008490;28;20133;-77
2021/09/24 08:31:29;;;;;;;5.90;3.47;;;14.80;99.90;;;;;;4990417;28;20036;-77
2021/09/24 08:33:58;;;;;;;3.83;3.08;;;14.80;99.90;;;;;;5015850;28;20029;-77
2021/09/24 08:36:25;;;;;;;5.85;3.65;;;14.90;99.90;;;;;;5026902;28;20026;-77
2021/09/24 08:38:52;;;;;;;3.90;3.40;;;14.90;99.90;;;;;;5010387;28;20116;-77
2021/09/24 08:41:19;;;;;;;4.63;2.65;;;14.90;99.90;;;;;;5004336;28;20034;-77
2021/09/24 08:43:48;;;;;;;4.35;3.42;;;14.90;99.90;;;;;;5008235;28;20030;-76
2021/09/24 08:46:16;;;;;;;5.75;3.35;;;14.90;99.90;;;;;;5009191;28;20029;-77
2021/09/24 08:48:44;;;;;;;4.05;3.20;;;14.90;99.90;;;;;;5027273;28;20478;-79
2021/09/24 08:51:09;;;;;;;7.93;4.10;;;15.00;99.90;;;;;;5007068;28;20034;-80
2021/09/24 08:53:36;;;;;;;7.15;3.80;;;15.00;99.90;;;;;;4999900;28;20030;-79
2021/09/24 08:56:03;;;;;;;8.43;4.03;;;15.00;99.90;;;;;;5024110;28;20496;-80
2021/09/24 08:58:29;;;;;;;4.38;3.53;;;15.00;99.90;;;;;;5008749;28;20021;-80
2021/09/24 09:00:55;;;;;;;5.30;3.78;;;15.10;99.90;;;;;;5008869;28;20084;-80
2021/09/24 09:03:21;;;;;;;3.53;3.15;;;15.10;99.90;;;;;;5009356;28;20504;-79
2021/09/24 09:05:53;;;;;;;5.90;3.42;;;15.20;99.90;;;;;;5003575;28;20037;-79
2021/09/24 09:08:24;;;;;;;6.28;4.20;;;15.20;99.90;;;;;;4986276;28;20572;-80
2021/09/24 09:10:56;;;;;;;4.55;3.97;;;15.20;99.90;;;;;;5004031;28;20469;-77
2021/09/24 09:13:25;;;;;;;5.55;3.65;;;15.30;99.90;;;;;;5005268;28;20169;-77
2021/09/24 09:15:59;;;;;;;7.43;3.83;;;15.30;99.90;;;;;;5008631;28;20049;-76
2021/09/24 09:18:27;;;;;;;5.77;3.57;;;15.30;99.90;;;;;;5001471;28;20632;-77
2021/09/24 09:20:53;;;;;;;4.95;3.42;;;15.40;99.90;;;;;;5017445;28;20038;-80
2021/09/24 09:23:21;;;;;;;5.65;3.63;;;15.40;99.90;;;;;;5005689;28;20575;-80
2021/09/24 09:25:49;;;;;;;5.50;4.05;;;15.50;99.90;;;;;;5004012;28;20022;-83
2021/09/24 09:28:59;;;;;;;7.63;4.53;;;15.50;99.90;;;;;;4990649;28;20684;-83
2021/09/24 09:31:32;;;;;;;4.72;3.75;;;15.50;99.90;;;;;;4956407;28;20053;-78
2021/09/24 09:34:03;;;;;;;5.65;4.05;;;15.60;99.90;;;;;;5010333;28;20030;-81
2021/09/24 09:36:33;;;;;;;6.38;4.47;;;15.60;99.90;;;;;;5001323;28;20030;-81
2021/09/24 09:39:08;;;;;;;6.82;4.05;;;15.60;99.90;;;;;;5006082;28;20041;-80
2021/09/24 09:41:35;;;;;;;7.82;3.78;;;15.70;99.90;;;;;;5004947;28;20026;-79
2021/09/24 09:44:02;;;;;;;9.05;4.43;;;15.70;99.90;;;;;;5023170;28;20018;-79
2021/09/24 09:46:34;;;;;;;4.90;4.35;;;15.70;99.90;;;;;;5008005;28;20033;-81
2021/09/24 09:49:07;;;;;;;6.10;4.38;;;15.80;99.90;;;;;;5022813;28;20026;-80
2021/09/24 09:51:36;;;;;;;7.20;4.43;;;15.90;99.90;;;;;;5013435;28;20034;-80
2021/09/24 09:54:02;;;;;;;4.18;3.78;;;15.90;99.90;;;;;;4991559;28;20037;-77
2021/09/24 09:56:45;;;;;;;5.57;3.83;;;15.90;99.90;;;;;;5005786;28;20022;-78
2021/09/24 09:59:31;;;;;;;5.90;4.38;;;16.00;99.90;;;;;;5008924;28;20084;-78
2021/09/24 10:02:17;;;;;;;5.85;4.20;;;16.00;99.90;;;;;;5002209;28;20119;-77
2021/09/24 10:04:44;;;;;;;;;;;16.00;99.90;;;;;;5010914;28;20530;-78
2021/09/24 10:07:35;;;;;;;8.15;3.95;;;16.00;99.90;;;;;;5009576;28;19913;-78
2021/09/24 10:10:04;;;;;;;8.13;4.20;;;16.10;99.90;;;;;;5001903;28;20041;-80
2021/09/24 10:12:30;;;;;;;5.60;3.50;;;16.10;99.90;;;;;;5004785;28;20030;-77
2021/09/24 10:14:55;;;;;;;7.40;4.03;;;16.10;99.90;;;;;;4999544;28;20084;-76
2021/09/24 10:17:23;;;;;;;7.00;4.32;;;16.20;99.90;;;;;;5004225;28;20381;-77
2021/09/24 10:19:50;;;;;;;5.72;4.00;;;16.10;99.90;;;;;;5023801;28;20099;-79
2021/09/24 10:22:17;;;;;;;5.85;3.75;;;16.20;99.90;;;;;;5007344;28;20503;-78
2021/09/24 10:24:43;;;;;;;5.63;4.20;;;16.20;99.90;;;;;;4998854;28;20022;-79
2021/09/24 10:27:29;;;;;;;6.65;3.78;;;16.30;99.90;;;;;;4971280;28;20791;-78
2021/09/24 10:30:04;;;;;;;5.88;3.75;;;16.30;99.90;;;;;;5010390;28;20076;-78
2021/09/24 10:32:30;;;;;;;4.90;3.75;;;16.40;99.90;;;;;;4992442;28;20053;-79
2021/09/24 10:35:07;;;;;;;6.15;3.58;;;16.50;99.90;;;;;;5003122;28;20037;-78
2021/09/24 10:37:37;;;;;;;6.75;3.90;;;16.60;99.90;;;;;;5012410;28;20528;-78
2021/09/24 10:40:24;;;;;;;8.30;4.22;;;16.70;99.90;;;;;;5016299;28;20042;-77
2021/09/24 10:42:52;;;;;;;7.38;4.30;;;16.70;99.90;;;;;;5004664;28;20022;-78
2021/09/24 10:45:29;;;;;;;6.32;3.97;;;16.80;99.90;;;;;;5008049;28;20109;-79
2021/09/24 10:48:05;;;;;;;7.20;4.78;;;16.90;99.90;;;;;;5007364;28;20025;-78
2021/09/24 10:50:32;;;;;;;9.40;4.78;;;17.00;99.90;;;;;;5004291;28;20409;-79
2021/09/24 10:55:39;;;;;;;8.38;4.88;;;17.00;99.90;;;;;;5007715;28;20068;-78
2021/09/24 10:58:05;;;;;;;7.10;4.82;;;16.90;99.90;;;;;;5009924;28;20053;-79
2021/09/24 11:00:33;;;;;;;6.70;4.75;;;17.00;99.90;;;;;;5004193;28;20116;-78
2021/09/24 11:03:26;;;;;;;7.90;5.00;;;17.10;99.90;;;;;;5017090;28;20400;-77
2021/09/24 11:05:56;;;;;;;9.00;5.00;;;17.20;99.90;;;;;;5001671;28;20503;-77
2021/09/24 11:08:37;;;;;;;8.80;4.55;;;17.30;99.90;;;;;;5007064;28;20076;-78
2021/09/24 11:11:05;;;;;;;7.45;4.97;;;17.40;99.90;;;;;;5007544;28;20037;-78
2021/09/24 11:13:33;;;;;;;7.68;4.90;;;17.60;99.90;;;;;;5011959;28;20067;-78
2021/09/24 11:16:04;;;;;;;7.22;4.90;;;17.70;99.90;;;;;;5009660;28;20702;-78
2021/09/24 11:18:48;;;;;;;7.57;5.05;;;17.80;99.90;;;;;;5006975;28;20022;-78
2021/09/24 11:21:21;;;;;;;7.50;5.50;;;17.90;99.90;;;;;;5008125;28;20788;-78
2021/09/24 11:23:49;;;;;;;5.90;4.43;;;18.00;99.90;;;;;;5006042;28;20030;-78
2021/09/24 11:26:22;;;;;;;7.15;4.68;;;18.00;99.90;;;;;;5007896;28;20061;-78
2021/09/24 11:29:10;;;;;;;7.57;4.50;;;18.00;99.90;;;;;;5007416;28;20066;-77
2021/09/24 11:31:58;;;;;;;5.95;4.57;;;18.00;99.90;;;;;;5009561;28;20068;-78
2021/09/24 11:34:33;;;;;;;8.48;4.53;;;18.00;99.90;;;;;;5027186;28;20545;-78
2021/09/24 11:37:02;;;;;;;8.25;4.50;;;18.00;99.90;;;;;;5009646;28;20034;-78
2021/09/24 11:39:28;;;;;;;7.65;5.60;;;18.00;99.90;;;;;;5004223;28;20038;-78
2021/09/24 11:42:06;;;;;;;6.22;4.55;;;18.00;99.90;;;;;;5011493;28;20045;-78
2021/09/24 11:44:34;;;;;;;9.15;5.57;;;18.00;99.90;;;;;;5009155;28;20041;-78
2021/09/24 11:47:00;;;;;;;7.78;4.05;;;18.00;99.90;;;;;;5016575;28;20962;-78
2021/09/24 11:49:25;;;;;;;5.28;3.95;;;18.00;99.90;;;;;;5012617;28;20053;-78
2021/09/24 11:51:59;;;;;;;5.53;4.05;;;18.10;99.90;;;;;;5007477;28;20037;-78
2021/09/24 11:54:26;;;;;;;6.20;4.50;;;18.10;99.90;;;;;;5009448;28;20026;-78
2021/09/24 11:56:52;;;;;;;7.13;4.60;;;18.10;99.90;;;;;;5012293;28;20022;-78
2021/09/24 11:59:22;;;;;;;5.28;4.00;;;18.10;99.90;;;;;;5000399;28;20377;-78
2021/09/24 12:01:47;;;;;;;7.32;4.00;;;18.10;99.90;;;;;;5013651;28;20030;-78
2021/09/24 12:04:13;;;;;;;6.75;4.00;;;18.10;99.90;;;;;;5021322;28;20381;-78
2021/09/24 12:06:41;;;;;;;6.13;4.00;;;18.10;99.90;;;;;;5010145;28;20065;-78
2021/09/24 12:09:10;;;;;;;6.30;3.72;;;18.10;99.90;;;;;;5008530;28;20038;-79
2021/09/24 12:11:45;;;;;;;4.78;3.72;;;18.20;99.90;;;;;;5007563;28;20037;-78
2021/09/24 12:14:13;;;;;;;6.32;4.72;;;18.10;99.90;;;;;;5009952;28;20051;-78
2021/09/24 12:16:40;;;;;;;7.93;3.92;;;18.10;99.90;;;;;;5011871;28;20109;-79
2021/09/24 12:19:25;;;;;;;5.20;4.13;;;18.20;99.90;;;;;;5010024;28;20481;-78
2021/09/24 12:21:58;;;;;;;6.65;3.90;;;18.20;99.90;;;;;;5007929;28;20503;-78
2021/09/24 12:24:33;;;;;;;7.13;4.43;;;18.20;99.90;;;;;;5006462;28;20053;-78
2021/09/24 12:27:07;;;;;;;4.72;3.70;;;18.20;99.90;;;;;;5008491;28;20427;-78
2021/09/24 12:29:35;;;;;;;8.82;4.32;;;18.20;99.90;;;;;;5022815;28;20495;-78
2021/09/24 12:32:08;;;;;;;4.88;3.47;;;18.30;99.90;;;;;;5009327;28;20396;-78
2021/09/24 12:34:42;;;;;;;6.35;4.05;;;18.30;99.90;;;;;;5009410;28;20112;-78
2021/09/24 12:37:09;;;;;;;6.00;3.53;;;18.40;99.90;;;;;;5011747;28;20029;-78
2021/09/24 12:39:42;;;;;;;5.50;3.88;;;18.40;99.90;;;;;;5012722;28;20044;-78
2021/09/24 12:42:13;;;;;;;7.32;4.03;;;18.40;99.90;;;;;;5007417;28;20573;-78
2021/09/24 12:44:59;;;;;;;6.85;3.55;;;18.40;99.90;;;;;;5012490;28;20032;-78
2021/09/24 12:47:30;;;;;;;5.57;4.20;;;18.40;99.90;;;;;;5024684;28;20408;-78
2021/09/24 12:49:59;;;;;;;7.03;3.47;;;18.40;99.90;;;;;;4993349;28;20052;-78
2021/09/24 12:52:27;;;;;;;6.57;4.00;;;18.40;99.90;;;;;;5015887;28;20488;-78